createdAt,value
2023-03-23T00:02:29.371Z,2.33
2023-03-23T00:05:38.397Z,3.00
2023-03-23T00:08:47.778Z,2.67
2023-03-23T00:12:07.016Z,2.40
2023-03-23T00:15:14.525Z,2.13
2023-03-23T00:18:23.183Z,2.58
2023-03-23T00:21:37.405Z,2.88
2023-03-23T00:24:43.072Z,2.20
2023-03-23T00:27:48.522Z,2.20
2023-03-23T00:30:58.074Z,2.22
2023-03-23T00:34:05.293Z,3.25
2023-03-23T00:37:14.123Z,2.30
2023-03-23T00:40:20.237Z,2.47
2023-03-23T00:43:26.705Z,2.20
2023-03-23T00:46:32.716Z,2.17
2023-03-23T00:49:38.822Z,2.20
2023-03-23T00:52:47.017Z,2.03
2023-03-23T00:55:53.391Z,2.70
2023-03-23T00:58:59.330Z,2.50
2023-03-23T01:02:04.918Z,2.33
2023-03-23T01:05:11.004Z,2.20
2023-03-23T01:08:20.185Z,2.17
2023-03-23T01:11:25.652Z,2.00
2023-03-23T01:14:31.507Z,2.15
2023-03-23T01:17:37.270Z,2.60
2023-03-23T01:20:43.924Z,2.38
2023-03-23T01:23:52.706Z,2.88
2023-03-23T01:26:58.466Z,2.70
2023-03-23T01:30:04.115Z,2.95
2023-03-23T01:33:09.636Z,2.70
2023-03-23T01:36:16.533Z,3.05
2023-03-23T01:39:25.335Z,2.78
2023-03-23T01:42:34.915Z,2.83
2023-03-23T01:45:41.961Z,3.05
2023-03-23T01:48:47.866Z,2.67
2023-03-23T01:51:57.243Z,3.33
2023-03-23T01:55:06.291Z,2.88
2023-03-23T01:58:12.358Z,2.90
2023-03-23T02:01:18.927Z,2.97
2023-03-23T02:04:24.892Z,3.20
2023-03-23T02:07:30.689Z,3.30
2023-03-23T02:10:40.746Z,3.38
2023-03-23T02:13:47.493Z,3.75
2023-03-23T02:16:58.715Z,3.08
2023-03-23T02:20:15.209Z,3.53
2023-03-23T02:23:40.923Z,2.80
2023-03-23T02:26:59.597Z,3.03
2023-03-23T02:30:14.368Z,2.78
2023-03-23T02:33:44.070Z,2.85
2023-03-23T02:36:59.586Z,2.88
2023-03-23T02:40:10.067Z,2.92
2023-03-23T02:43:17.388Z,2.80
2023-03-23T02:46:24.915Z,3.42
2023-03-23T02:49:33.201Z,2.87
2023-03-23T02:52:43.853Z,3.22
2023-03-23T02:55:49.887Z,3.30
2023-03-23T02:58:59.129Z,3.40
2023-03-23T03:02:09.851Z,3.25
2023-03-23T03:05:20.012Z,3.33
2023-03-23T03:08:31.969Z,3.15
2023-03-23T03:11:38.616Z,3.70
2023-03-23T03:14:48.402Z,3.10
2023-03-23T03:17:57.521Z,3.15
2023-03-23T03:21:04.466Z,3.83
2023-03-23T03:24:15.432Z,3.85
2023-03-23T03:27:24.414Z,3.30
2023-03-23T03:30:42.245Z,3.05
2023-03-23T03:33:48.219Z,3.97
2023-03-23T03:36:54.749Z,3.38
2023-03-23T03:40:06.072Z,3.28
2023-03-23T03:43:12.033Z,3.58
2023-03-23T03:46:17.666Z,3.50
2023-03-23T03:49:23.940Z,3.97
2023-03-23T03:52:30.127Z,4.05
2023-03-23T03:55:39.883Z,3.85
2023-03-23T03:58:49.944Z,4.00
2023-03-23T04:02:21.316Z,3.95
2023-03-23T04:05:30.161Z,3.55
2023-03-23T04:08:37.062Z,3.58
2023-03-23T04:11:45.772Z,3.77
2023-03-23T04:15:23.183Z,3.70
2023-03-23T04:18:30.841Z,4.00
2023-03-23T04:21:36.562Z,4.03
2023-03-23T04:24:56.112Z,4.43
2023-03-23T04:28:05.117Z,4.25
2023-03-23T04:31:18.429Z,4.65
2023-03-23T04:34:29.194Z,4.15
2023-03-23T04:37:35.716Z,4.55
2023-03-23T04:40:44.190Z,4.97
2023-03-23T04:44:05.914Z,4.93
2023-03-23T04:47:21.051Z,4.88
2023-03-23T04:50:34.430Z,4.85
2023-03-23T04:53:48.495Z,4.60
2023-03-23T04:56:54.135Z,4.93
2023-03-23T05:00:02.083Z,5.30
2023-03-23T05:03:18.131Z,5.53
2023-03-23T05:06:24.591Z,5.22
2023-03-23T05:09:34.845Z,5.55
2023-03-23T05:12:41.500Z,4.93
2023-03-23T05:15:51.569Z,5.77
2023-03-23T05:18:58.799Z,6.65
2023-03-23T05:22:06.493Z,6.45
2023-03-23T05:25:24.113Z,8.25
2023-03-23T05:28:37.836Z,7.28
2023-03-23T05:31:50.797Z,6.47
2023-03-23T05:34:56.324Z,7.03
2023-03-23T05:38:03.271Z,6.78
2023-03-23T05:41:08.931Z,7.15
2023-03-23T05:44:19.066Z,7.05
2023-03-23T05:50:39.412Z,7.68
2023-03-23T05:53:44.936Z,7.25
2023-03-23T05:56:54.019Z,6.32
2023-03-23T06:00:21.219Z,7.60
2023-03-23T06:03:31.783Z,7.07
2023-03-23T06:06:46.820Z,7.90
2023-03-23T06:09:53.469Z,8.77
2023-03-23T06:13:03.114Z,8.02
2023-03-23T06:16:17.511Z,11.70
2023-03-23T06:19:29.515Z,8.48
2023-03-23T06:22:48.854Z,7.38
2023-03-23T06:26:07.312Z,7.18
2023-03-23T06:29:14.935Z,8.43
2023-03-23T06:32:28.083Z,7.22
2023-03-23T06:35:33.435Z,8.25
2023-03-23T06:38:58.061Z,7.90
2023-03-23T06:42:13.595Z,7.07
2023-03-23T06:45:25.055Z,8.65
2023-03-23T06:48:41.186Z,8.10
2023-03-23T06:54:57.167Z,7.07
2023-03-23T06:58:03.278Z,6.97
2023-03-23T07:01:09.537Z,8.05
2023-03-23T07:04:20.643Z,7.20
2023-03-23T07:07:35.012Z,8.18
2023-03-23T07:11:03.357Z,7.00
2023-03-23T07:14:09.283Z,8.38
2023-03-23T07:17:15.110Z,7.32
2023-03-23T07:20:34.114Z,7.20
2023-03-23T07:23:40.071Z,8.13
2023-03-23T07:26:52.297Z,7.03
2023-03-23T07:29:59.416Z,6.97
2023-03-23T07:33:08.329Z,6.80
2023-03-23T07:36:14.792Z,7.93
2023-03-23T07:39:20.339Z,7.53
2023-03-23T07:42:29.423Z,8.30
2023-03-23T07:45:38.416Z,7.18
2023-03-23T07:48:45.172Z,7.45
2023-03-23T07:51:51.033Z,7.63
2023-03-23T07:54:56.557Z,7.30
2023-03-23T07:58:20.321Z,7.32
2023-03-23T08:01:31.227Z,6.80
2023-03-23T08:04:58.224Z,5.63
2023-03-23T08:08:29.732Z,6.93
2023-03-23T08:11:53.591Z,6.93
2023-03-23T08:15:30.720Z,6.35
2023-03-23T08:18:47.686Z,6.10
2023-03-23T08:22:06.656Z,7.03
2023-03-23T08:25:20.722Z,6.57
2023-03-23T08:28:41.885Z,6.60
2023-03-23T08:32:04.090Z,6.60
2023-03-23T08:35:28.858Z,6.35
2023-03-23T08:38:55.705Z,6.40
2023-03-23T08:42:20.075Z,7.15
2023-03-23T08:45:49.248Z,7.25
2023-03-23T08:48:57.599Z,6.68
2023-03-23T08:52:21.547Z,6.47
2023-03-23T08:55:47.148Z,6.03
2023-03-23T08:59:13.162Z,7.55
2023-03-23T09:02:54.537Z,7.53
2023-03-23T09:06:06.427Z,6.95
2023-03-23T09:09:27.396Z,7.13
2023-03-23T09:12:32.783Z,6.80
2023-03-23T09:15:46.389Z,7.10
2023-03-23T09:18:59.494Z,7.15
2023-03-23T09:22:07.915Z,6.40
2023-03-23T09:28:19.343Z,6.43
2023-03-23T09:31:27.733Z,7.35
2023-03-23T09:37:45.948Z,6.65
2023-03-23T09:40:52.354Z,6.32
2023-03-23T09:44:05.492Z,6.85
2023-03-23T09:47:13.310Z,5.93
2023-03-23T09:50:19.940Z,6.53
2023-03-23T09:53:29.377Z,6.00
2023-03-23T09:56:37.130Z,6.00
2023-03-23T09:59:45.113Z,5.97
2023-03-23T10:02:53.602Z,5.90
2023-03-23T10:06:00.367Z,5.95
2023-03-23T10:09:09.559Z,5.38
2023-03-23T10:12:19.583Z,5.15
2023-03-23T10:15:28.061Z,5.03
2023-03-23T10:21:40.296Z,5.20
2023-03-23T10:24:54.051Z,4.65
2023-03-23T10:28:04.676Z,4.60
2023-03-23T10:31:14.211Z,4.82
2023-03-23T10:34:21.670Z,4.47
2023-03-23T10:37:28.124Z,4.35
2023-03-23T10:40:36.965Z,4.53
2023-03-23T10:43:42.586Z,4.10
2023-03-23T10:46:51.760Z,4.85
2023-03-23T10:49:58.971Z,4.38
2023-03-23T10:53:06.508Z,4.18
2023-03-23T10:56:26.106Z,4.32
2023-03-23T10:59:33.943Z,4.20
2023-03-23T11:02:43.901Z,4.30
2023-03-23T11:05:52.957Z,3.83
2023-03-23T11:09:00.919Z,4.20
2023-03-23T11:12:08.914Z,4.97
2023-03-23T11:15:25.010Z,4.22
2023-03-23T11:18:31.693Z,3.97
2023-03-23T11:21:37.348Z,4.13
2023-03-23T11:24:45.534Z,4.38
2023-03-23T11:27:55.060Z,3.90
2023-03-23T11:31:01.984Z,4.15
2023-03-23T11:34:08.188Z,3.97
2023-03-23T11:37:17.400Z,4.47
2023-03-23T11:40:23.695Z,4.63
2023-03-23T11:43:31.965Z,3.67
2023-03-23T11:46:38.941Z,3.40
2023-03-23T11:49:48.734Z,4.72
2023-03-23T11:52:58.110Z,4.20
2023-03-23T11:56:10.965Z,3.50
2023-03-23T11:59:19.831Z,3.33
2023-03-23T12:02:40.723Z,3.83
2023-03-23T12:05:49.636Z,3.72
2023-03-23T12:09:04.624Z,3.78
2023-03-23T12:12:15.511Z,3.65
2023-03-23T12:15:26.892Z,4.03
2023-03-23T12:18:36.719Z,3.88
2023-03-23T12:21:47.209Z,3.50
2023-03-23T12:24:56.747Z,3.83
2023-03-23T12:28:05.794Z,3.60
2023-03-23T12:31:16.654Z,4.47
2023-03-23T12:34:28.868Z,3.38
2023-03-23T12:37:43.126Z,3.85
2023-03-23T12:41:03.844Z,3.63
2023-03-23T12:44:11.818Z,4.57
2023-03-23T12:47:33.985Z,3.77
2023-03-23T12:50:42.183Z,3.53
2023-03-23T12:53:50.799Z,4.00
2023-03-23T12:56:58.420Z,3.97
2023-03-23T13:00:13.262Z,3.40
2023-03-23T13:03:24.100Z,3.53
2023-03-23T13:06:32.943Z,3.90
2023-03-23T13:09:42.575Z,3.95
2023-03-23T13:12:47.866Z,3.53
2023-03-23T13:15:59.370Z,3.60
2023-03-23T13:19:12.458Z,4.10
2023-03-23T13:22:20.786Z,3.60
2023-03-23T13:25:33.551Z,3.88
2023-03-23T13:28:50.590Z,4.03
2023-03-23T13:31:56.216Z,4.40
2023-03-23T13:35:05.342Z,4.32
2023-03-23T13:38:17.717Z,4.07
2023-03-23T13:41:24.749Z,4.72
2023-03-23T13:44:31.037Z,4.70
2023-03-23T13:47:40.170Z,5.18
2023-03-23T13:50:54.307Z,4.40
2023-03-23T13:54:10.039Z,5.10
2023-03-23T13:57:27.926Z,4.45
2023-03-23T14:00:50.978Z,4.78
2023-03-23T14:04:01.339Z,4.47
2023-03-23T14:07:16.511Z,4.82
2023-03-23T14:10:22.495Z,3.83
2023-03-23T14:13:28.848Z,4.07
2023-03-23T14:16:41.230Z,4.15
2023-03-23T14:19:48.750Z,4.03
2023-03-23T14:26:08.757Z,4.18
2023-03-23T14:29:14.660Z,3.95
2023-03-23T14:32:21.133Z,4.32
2023-03-23T14:35:29.190Z,4.53
2023-03-23T14:38:35.684Z,5.82
2023-03-23T14:41:44.687Z,4.22
2023-03-23T14:44:52.366Z,5.03
2023-03-23T14:47:59.370Z,4.40
2023-03-23T14:51:06.297Z,4.97
2023-03-23T14:54:12.094Z,5.10
2023-03-23T14:57:21.135Z,4.65
2023-03-23T15:00:27.941Z,4.28
2023-03-23T15:03:35.913Z,4.45
2023-03-23T15:06:42.940Z,3.88
2023-03-23T15:09:49.357Z,4.55
2023-03-23T15:12:59.449Z,4.47
2023-03-23T15:16:15.785Z,5.72
2023-03-23T15:19:23.110Z,5.95
2023-03-23T15:22:30.169Z,5.15
2023-03-23T15:25:40.634Z,4.70
2023-03-23T15:28:49.583Z,4.05
2023-03-23T15:31:59.398Z,4.35
2023-03-23T15:35:12.445Z,5.13
2023-03-23T15:38:22.142Z,4.72
2023-03-23T15:41:28.175Z,4.93
2023-03-23T15:44:37.118Z,5.05
2023-03-23T15:47:48.490Z,4.88
2023-03-23T15:50:54.329Z,4.35
2023-03-23T15:54:02.944Z,4.10
2023-03-23T15:57:14.326Z,4.20
2023-03-23T16:00:24.214Z,4.55
2023-03-23T16:03:30.441Z,4.53
2023-03-23T16:06:36.938Z,4.10
2023-03-23T16:09:42.983Z,5.43
2023-03-23T16:12:48.429Z,4.82
2023-03-23T16:15:57.032Z,5.00
2023-03-23T16:19:02.452Z,4.53
2023-03-23T16:22:07.750Z,4.40
2023-03-23T16:25:13.451Z,4.15
2023-03-23T16:28:20.906Z,4.25
2023-03-23T16:31:29.340Z,4.80
2023-03-23T16:34:35.991Z,4.28
2023-03-23T16:37:41.431Z,4.88
2023-03-23T16:40:47.351Z,4.75
2023-03-23T16:43:52.590Z,4.55
2023-03-23T16:47:00.731Z,4.80
2023-03-23T16:50:07.250Z,5.25
2023-03-23T16:53:13.181Z,4.57
2023-03-23T16:56:18.642Z,4.78
2023-03-23T16:59:23.831Z,4.70
2023-03-23T17:02:32.754Z,4.82
2023-03-23T17:05:38.688Z,4.93
2023-03-23T17:08:44.428Z,5.25
2023-03-23T17:11:49.824Z,4.78
2023-03-23T17:14:55.196Z,5.00
2023-03-23T17:18:03.405Z,4.93
2023-03-23T17:21:09.412Z,5.00
2023-03-23T17:24:14.517Z,5.28
2023-03-23T17:27:21.280Z,5.45
2023-03-23T17:30:26.968Z,5.35
2023-03-23T17:33:35.255Z,5.22
2023-03-23T17:36:40.568Z,5.45
2023-03-23T17:39:47.606Z,5.35
2023-03-23T17:42:53.655Z,5.25
2023-03-23T17:45:58.902Z,6.25
2023-03-23T17:49:07.427Z,6.18
2023-03-23T17:52:12.975Z,7.15
2023-03-23T17:55:21.532Z,6.38
2023-03-23T17:58:27.358Z,5.93
2023-03-23T18:01:33.154Z,6.80
2023-03-23T18:04:42.798Z,6.75
2023-03-23T18:07:48.378Z,6.63
2023-03-23T18:10:53.729Z,6.00
2023-03-23T18:13:59.109Z,6.32
2023-03-23T18:17:04.459Z,6.68
2023-03-23T18:20:12.771Z,6.55
2023-03-23T18:23:18.029Z,6.53
2023-03-23T18:26:24.279Z,6.07
2023-03-23T18:29:29.686Z,7.45
2023-03-23T18:32:35.255Z,7.95
2023-03-23T18:35:43.539Z,8.48
2023-03-23T18:41:54.292Z,7.68
2023-03-23T18:45:00.249Z,8.07
2023-03-23T18:48:05.835Z,7.63
2023-03-23T18:51:13.865Z,7.80
2023-03-23T18:54:19.748Z,7.50
2023-03-23T18:57:25.065Z,7.60
2023-03-23T19:00:30.856Z,8.27
2023-03-23T19:03:36.508Z,8.02
2023-03-23T19:06:44.729Z,7.40
2023-03-23T19:09:50.083Z,7.80
2023-03-23T19:12:55.964Z,8.02
2023-03-23T19:16:01.461Z,7.78
2023-03-23T19:19:08.560Z,7.45
2023-03-23T19:22:16.924Z,8.13
2023-03-23T19:25:22.820Z,7.88
2023-03-23T19:31:37.003Z,7.38
2023-03-23T19:34:42.457Z,8.27
2023-03-23T19:37:50.314Z,8.52
2023-03-23T19:40:58.215Z,8.93
2023-03-23T19:44:04.607Z,7.65
2023-03-23T19:47:10.644Z,8.00
2023-03-23T19:50:16.699Z,8.75
2023-03-23T19:53:26.566Z,8.40
2023-03-23T19:56:33.383Z,7.78
2023-03-23T19:59:39.339Z,8.13
2023-03-23T20:02:44.827Z,7.32
2023-03-23T20:05:50.592Z,7.53
2023-03-23T20:09:00.019Z,7.75
2023-03-23T20:12:06.348Z,7.57
2023-03-23T20:15:12.193Z,7.32
2023-03-23T20:18:19.139Z,7.60
2023-03-23T20:21:25.148Z,7.85
2023-03-23T20:24:33.118Z,7.45
2023-03-23T20:27:38.304Z,7.50
2023-03-23T20:30:43.682Z,7.40
2023-03-23T20:33:48.798Z,7.63
2023-03-23T20:37:06.629Z,7.85
2023-03-23T20:40:15.967Z,7.18
2023-03-23T20:43:21.801Z,6.95
2023-03-23T20:46:27.139Z,7.47
2023-03-23T20:49:33.835Z,8.18
2023-03-23T20:52:40.996Z,7.07
2023-03-23T20:55:49.715Z,8.25
2023-03-23T20:58:55.388Z,6.90
2023-03-23T21:02:00.741Z,7.20
2023-03-23T21:05:06.863Z,7.03
2023-03-23T21:08:12.750Z,6.43
2023-03-23T21:11:22.581Z,8.23
2023-03-23T21:14:27.710Z,7.22
2023-03-23T21:17:33.288Z,6.32
2023-03-23T21:20:38.835Z,6.97
2023-03-23T21:23:47.654Z,7.88
2023-03-23T21:26:56.111Z,7.45
2023-03-23T21:33:08.503Z,7.72
2023-03-23T21:36:14.277Z,7.75
2023-03-23T21:39:20.757Z,7.18
2023-03-23T21:42:30.969Z,7.28
2023-03-23T21:45:36.489Z,7.70
2023-03-23T21:48:42.072Z,8.18
2023-03-23T21:51:49.108Z,7.82
2023-03-23T21:54:54.372Z,7.95
2023-03-23T21:58:02.555Z,7.38
2023-03-23T22:01:08.631Z,8.95
2023-03-23T22:04:13.952Z,8.15
2023-03-23T22:07:19.169Z,7.80
2023-03-23T22:10:24.596Z,8.48
2023-03-23T22:13:33.627Z,8.80
2023-03-23T22:16:39.179Z,8.30
2023-03-23T22:19:45.077Z,9.23
2023-03-23T22:22:50.571Z,8.32
2023-03-23T22:25:57.084Z,9.35
2023-03-23T22:29:05.680Z,8.35
2023-03-23T22:32:11.277Z,9.30
2023-03-23T22:35:17.103Z,9.27
2023-03-23T22:38:22.415Z,9.27
2023-03-23T22:41:28.972Z,9.48
2023-03-23T22:44:37.506Z,9.15
2023-03-23T22:47:42.931Z,10.60
2023-03-23T22:50:48.429Z,11.02
2023-03-23T22:53:53.902Z,9.88
2023-03-23T22:56:59.525Z,10.23
2023-03-23T23:00:14.944Z,11.05
2023-03-23T23:03:20.730Z,11.45
2023-03-23T23:06:26.244Z,9.70
2023-03-23T23:09:31.607Z,11.07
2023-03-23T23:12:37.547Z,10.95
2023-03-23T23:15:47.453Z,10.45
2023-03-23T23:18:53.071Z,11.27
2023-03-23T23:22:03.894Z,11.93
2023-03-23T23:25:18.342Z,11.10
2023-03-23T23:28:23.849Z,11.85
2023-03-23T23:31:34.265Z,11.73
2023-03-23T23:34:39.895Z,11.57
2023-03-23T23:37:45.367Z,11.73
2023-03-23T23:40:51.154Z,12.30
2023-03-23T23:43:56.374Z,12.05
2023-03-23T23:47:04.479Z,11.93
2023-03-23T23:50:10.638Z,11.63
2023-03-23T23:53:17.142Z,12.15
2023-03-23T23:56:23.217Z,11.95
2023-03-23T23:59:29.271Z,12.02
